Time;durP1;ratioP1;P1;durP2;ratioP2;P2;SDS_P1;SDS_P2;PMS_P1;PMS_P2;Temp;Humidity;BMP_temperature;BMP_pressure;BME280_temperature;BME280_humidity;BME280_pressure;Samples;Min_cycle;Max_cycle;Signal;HPM_P1;HPM_P2
2021/08/27 00:00:58;;;;;;;;;;;;;;;18.13;49.04;99251.63;5075189;28;19924;-76
2021/08/27 00:03:24;;;;;;;;;;;;;;;18.01;49.68;99250.28;5025497;28;20504;-76
2021/08/27 00:05:49;;;;;;;;;;;;;;;18.05;49.58;99254.31;5074845;28;19923;-76
2021/08/27 00:08:15;;;;;;;;;;;;;;;18.03;49.42;99262.63;5041601;28;19924;-76
2021/08/27 00:10:41;;;;;;;;;;;;;;;18.01;49.49;99264.63;5058258;28;19928;-76
2021/08/27 00:13:07;;;;;;;;;;;;;;;18.03;49.39;99256.38;5042096;28;19928;-76
2021/08/27 00:15:33;;;;;;;;;;;;;;;17.93;49.85;99259.25;5092997;28;20018;-77
2021/08/27 00:17:59;;;;;;;;;;;;;;;17.91;49.89;99253.19;5058462;28;20018;-76
2021/08/27 00:20:25;;;;;;;;;;;;;;;17.87;50.02;99251.84;5074635;28;19967;-76
2021/08/27 00:22:50;;;;;;;;;;;;;;;17.86;49.80;99255.53;5060641;28;19928;-76
2021/08/27 00:25:16;;;;;;;;;;;;;;;17.84;49.97;99257.59;5045752;28;19927;-77
2021/08/27 00:27:42;;;;;;;;;;;;;;;17.69;50.23;99266.34;5062085;28;19931;-77
2021/08/27 00:30:08;;;;;;;;;;;;;;;17.70;50.28;99261.78;5062928;28;19928;-76
2021/08/27 00:32:33;;;;;;;;;;;;;;;17.67;50.14;99260.25;5062441;28;19924;-75
2021/08/27 00:35:01;;;;;;;;;;;;;;;17.69;50.21;99266.34;5045071;28;19977;-76
2021/08/27 00:37:27;;;;;;;;;;;;;;;17.54;50.75;99267.22;5062209;28;19928;-76
2021/08/27 00:39:52;;;;;;;;;;;;;;;17.47;50.68;99267.03;5045388;28;20444;-75
2021/08/27 00:42:18;;;;;;;;;;;;;;;17.47;50.79;99270.59;5061928;28;19931;-75
2021/08/27 00:44:44;;;;;;;;;;;;;;;17.47;50.85;99272.44;5061546;28;20044;-75
2021/08/27 00:47:09;;;;;;;;;;;;;;;17.48;50.64;99266.84;5078457;28;20291;-75
2021/08/27 00:49:35;;;;;;;;;;;;;;;17.44;50.99;99278.19;5062028;28;19924;-74
2021/08/27 00:52:01;;;;;;;;;;;;;;;17.34;51.42;99272.09;5061572;28;19935;-75
2021/08/27 00:54:27;;;;;;;;;;;;;;;17.24;51.59;99277.66;5061781;28;19968;-75
2021/08/27 00:56:52;;;;;;;;;;;;;;;17.24;51.52;99280.38;5062083;28;19931;-75
2021/08/27 00:59:19;;;;;;;;;;;;;;;17.15;51.82;99284.94;5061881;28;19931;-76
2021/08/27 01:01:45;;;;;;;;;;;;;;;17.17;51.42;99282.88;5028968;28;19931;-75
2021/08/27 01:04:11;;;;;;;;;;;;;;;17.15;51.68;99282.22;5061656;28;20026;-73
2021/08/27 01:06:56;;;;;;;;;;;;;;;17.10;51.55;99289.97;5078064;28;20019;-75
2021/08/27 01:09:37;;;;;;;;;;;;;;;16.87;52.17;99280.78;5044924;28;19924;-77
2021/08/27 01:12:22;;;;;;;;;;;;;;;17.05;51.95;99275.28;5044985;28;20017;-73
2021/08/27 01:14:52;;;;;;;;;;;;;;;17.00;51.86;99275.78;5061558;28;19924;-73
2021/08/27 01:17:27;;;;;;;;;;;;;;;16.83;52.35;99284.84;5061570;28;19924;-75
2021/08/27 01:20:02;;;;;;;;;;;;;;;16.80;52.34;99291.41;5061374;28;20331;-75
2021/08/27 01:22:46;;;;;;;;;;;;;;;16.77;52.60;99290.88;5095951;28;19924;-76
2021/08/27 01:25:13;;;;;;;;;;;;;;;16.71;52.43;99290.50;5077860;28;19931;-76
2021/08/27 01:27:38;;;;;;;;;;;;;;;16.79;52.04;99287.03;5061195;28;20027;-75
2021/08/27 01:30:07;;;;;;;;;;;;;;;16.70;52.79;99294.22;5044322;28;20405;-75
2021/08/27 01:32:52;;;;;;;;;;;;;;;16.73;52.63;99296.59;5077240;28;20475;-76
2021/08/27 01:35:18;;;;;;;;;;;;;;;16.72;52.40;99289.50;5094472;28;20023;-76
2021/08/27 01:37:50;;;;;;;;;;;;;;;16.66;52.78;99289.28;5044118;28;20022;-75
2021/08/27 01:40:16;;;;;;;;;;;;;;;16.63;52.70;99293.19;5028338;28;19985;-75
2021/08/27 01:42:42;;;;;;;;;;;;;;;16.58;52.60;99287.41;5077435;28;19928;-75
2021/08/27 01:45:08;;;;;;;;;;;;;;;16.61;52.48;99292.47;5060748;28;20220;-76
2021/08/27 01:47:33;;;;;;;;;;;;;;;16.71;52.11;99298.59;5077706;28;19924;-75
2021/08/27 01:50:00;;;;;;;;;;;;;;;16.59;52.66;99290.97;5043977;28;19931;-75
2021/08/27 01:52:26;;;;;;;;;;;;;;;16.58;52.67;99295.50;5060627;28;19959;-76
2021/08/27 01:54:52;;;;;;;;;;;;;;;16.69;52.26;99297.91;5043614;28;19973;-75
2021/08/27 01:57:17;;;;;;;;;;;;;;;16.78;51.93;99293.44;5060646;28;20509;-75
2021/08/27 01:59:43;;;;;;;;;;;;;;;16.78;52.29;99301.53;5060147;28;19924;-76
2021/08/27 02:02:10;;;;;;;;;;;;;;;16.83;51.88;99301.03;5077156;28;20022;-75
2021/08/27 02:04:36;;;;;;;;;;;;;;;16.81;51.76;99292.25;5027273;28;20023;-76
2021/08/27 02:07:03;;;;;;;;;;;;;;;16.85;51.77;99304.41;5060986;28;19931;-77
2021/08/27 02:09:28;;;;;;;;;;;;;;;16.82;51.66;99308.28;5043756;28;19946;-76
2021/08/27 02:11:54;;;;;;;;;;;;;;;16.92;51.56;99302.75;5077047;28;20395;-77
2021/08/27 02:14:20;;;;;;;;;;;;;;;17.02;51.29;99303.44;5060283;28;20023;-77
2021/08/27 02:16:46;;;;;;;;;;;;;;;17.06;50.91;99302.09;5027274;28;20451;-76
2021/08/27 02:19:11;;;;;;;;;;;;;;;17.07;50.96;99306.50;5077239;28;20015;-76
2021/08/27 02:21:41;;;;;;;;;;;;;;;17.10;50.98;99303.47;5060429;28;19963;-75
2021/08/27 02:24:12;;;;;;;;;;;;;;;17.09;50.92;99301.78;5094738;28;19928;-77
2021/08/27 02:26:37;;;;;;;;;;;;;;;17.12;50.83;99309.56;5043680;28;19977;-77
2021/08/27 02:29:03;;;;;;;;;;;;;;;17.20;50.88;99309.56;5043571;28;20345;-77
2021/08/27 02:31:29;;;;;;;;;;;;;;;17.02;51.26;99298.03;5059821;28;19924;-76
2021/08/27 02:33:55;;;;;;;;;;;;;;;16.95;51.31;99305.94;5060318;28;19935;-77
2021/08/27 02:36:20;;;;;;;;;;;;;;;17.12;50.93;99297.91;5026351;28;19951;-79
2021/08/27 02:38:47;;;;;;;;;;;;;;;17.12;50.74;99297.91;5059440;28;19947;-77
2021/08/27 02:41:13;;;;;;;;;;;;;;;17.09;51.07;99290.97;5043178;28;19935;-76
2021/08/27 02:43:38;;;;;;;;;;;;;;;17.01;51.22;99307.16;5076398;28;19924;-76
2021/08/27 02:46:04;;;;;;;;;;;;;;;17.11;51.14;99293.50;5042565;28;19924;-75
2021/08/27 02:48:30;;;;;;;;;;;;;;;16.92;51.36;99294.63;5043012;28;19959;-75
2021/08/27 02:51:03;;;;;;;;;;;;;;;17.04;50.96;99304.16;5076145;28;19975;-76
2021/08/27 02:53:29;;;;;;;;;;;;;;;17.06;50.95;99312.06;5059739;28;20066;-77
2021/08/27 02:56:05;;;;;;;;;;;;;;;16.96;51.51;99313.06;5026224;28;19928;-76
2021/08/27 02:58:34;;;;;;;;;;;;;;;17.06;50.97;99318.31;5059804;28;19935;-78
2021/08/27 03:01:00;;;;;;;;;;;;;;;17.10;51.34;99308.88;5042903;28;20015;-75
2021/08/27 03:03:28;;;;;;;;;;;;;;;17.19;50.70;99302.50;5059668;28;19977;-76
2021/08/27 03:05:56;;;;;;;;;;;;;;;17.24;50.63;99294.72;5059764;28;20348;-84
2021/08/27 03:08:22;;;;;;;;;;;;;;;17.42;50.43;99312.66;5059663;28;19924;-81
2021/08/27 03:10:50;;;;;;;;;;;;;;;17.51;50.17;99303.53;5042510;28;20495;-77
2021/08/27 03:13:20;;;;;;;;;;;;;;;17.48;50.06;99318.22;5093782;28;19924;-76
2021/08/27 03:15:53;;;;;;;;;;;;;;;17.67;49.77;99310.78;5042076;28;20383;-78
2021/08/27 03:18:24;;;;;;;;;;;;;;;17.84;49.18;99300.84;5058477;28;19931;-77
2021/08/27 03:20:52;;;;;;;;;;;;;;;17.95;49.03;99305.91;5027613;28;19928;-78
2021/08/27 03:23:17;;;;;;;;;;;;;;;17.91;49.05;99307.28;5060109;28;20293;-77
2021/08/27 03:25:44;;;;;;;;;;;;;;;17.85;49.30;99307.94;5094207;28;20019;-78
2021/08/27 03:28:12;;;;;;;;;;;;;;;17.87;49.28;99298.66;5042564;28;19923;-78
2021/08/27 03:30:38;;;;;;;;;;;;;;;17.86;49.56;99298.81;5075707;28;19931;-79
2021/08/27 03:33:05;;;;;;;;;;;;;;;18.03;48.78;99295.09;5059340;28;19923;-79
2021/08/27 03:35:31;;;;;;;;;;;;;;;18.02;49.21;99304.22;5041751;28;19928;-79
2021/08/27 03:37:56;;;;;;;;;;;;;;;18.11;49.26;99295.06;5042076;28;19935;-78
2021/08/27 03:40:22;;;;;;;;;;;;;;;18.08;49.00;99289.97;5093425;28;19993;-78
2021/08/27 03:42:48;;;;;;;;;;;;;;;18.01;48.81;99299.81;5075425;28;19924;-85
2021/08/27 03:45:14;;;;;;;;;;;;;;;18.10;48.79;99301.50;5075146;28;19973;-79
2021/08/27 03:47:40;;;;;;;;;;;;;;;18.07;48.83;99304.53;5058582;28;19927;-79
2021/08/27 03:50:07;;;;;;;;;;;;;;;18.20;48.52;99299.44;5093068;28;19931;-79
2021/08/27 03:52:32;;;;;;;;;;;;;;;18.14;48.93;99291.19;5058603;28;19927;-79
2021/08/27 03:55:00;;;;;;;;;;;;;;;18.29;48.83;99299.44;5041802;28;20288;-78
2021/08/27 03:57:26;;;;;;;;;;;;;;;18.30;48.98;99290.28;5058167;28;19924;-79
2021/08/27 03:59:52;;;;;;;;;;;;;;;18.37;48.59;99299.41;5056699;28;19924;-81
2021/08/27 04:02:18;;;;;;;;;;;;;;;18.55;48.24;99286.47;5040047;28;19985;-83
2021/08/27 04:04:43;;;;;;;;;;;;;;;18.68;47.88;99289.44;5057343;28;19931;-80
2021/08/27 04:07:09;;;;;;;;;;;;;;;18.87;47.31;99295.50;5074135;28;19924;-79
2021/08/27 04:09:35;;;;;;;;;;;;;;;18.80;47.69;99300.75;5056821;28;19924;-78
2021/08/27 04:12:02;;;;;;;;;;;;;;;18.86;47.77;99297.38;5056713;28;19932;-80
2021/08/27 04:14:28;;;;;;;;;;;;;;;18.99;47.28;99295.94;5056585;28;20264;-78
2021/08/27 04:16:54;;;;;;;;;;;;;;;19.16;46.99;99292.97;5074555;28;19931;-78
2021/08/27 04:19:19;;;;;;;;;;;;;;;19.27;46.69;99299.00;5095766;28;19978;-80
2021/08/27 04:21:45;;;;;;;;;;;;;;;19.19;46.89;99307.19;5058159;28;19924;-79
2021/08/27 04:24:11;;;;;;;;;;;;;;;19.27;46.28;99299.84;5058317;28;19928;-79
2021/08/27 04:26:37;;;;;;;;;;;;;;;19.04;47.12;99304.38;5075210;28;19924;-79
2021/08/27 04:29:03;;;;;;;;;;;;;;;19.15;46.82;99301.28;5041720;28;20382;-78
2021/08/27 04:31:29;;;;;;;;;;;;;;;19.17;46.91;99308.19;5075354;28;19931;-79
2021/08/27 04:33:55;;;;;;;;;;;;;;;19.26;46.85;99302.75;5075194;28;19935;-79
2021/08/27 04:36:20;;;;;;;;;;;;;;;19.39;46.64;99292.97;5074714;28;20076;-79
2021/08/27 04:38:46;;;;;;;;;;;;;;;19.49;46.25;99302.75;5041438;28;20283;-78
2021/08/27 04:41:13;;;;;;;;;;;;;;;19.78;45.94;99299.28;5074652;28;19923;-79
2021/08/27 04:43:39;;;;;;;;;;;;;;;19.93;45.67;99300.16;5058151;28;19924;-79
2021/08/27 04:46:04;;;;;;;;;;;;;;;20.02;45.57;99301.78;5093021;28;19924;-80
2021/08/27 04:48:30;;;;;;;;;;;;;;;19.99;45.14;99304.03;5074293;28;19924;-78
2021/08/27 04:50:56;;;;;;;;;;;;;;;20.18;45.22;99310.81;5074245;28;19924;-79
2021/08/27 04:53:22;;;;;;;;;;;;;;;20.14;44.90;99313.03;5074583;28;20390;-79
2021/08/27 04:55:47;;;;;;;;;;;;;;;20.13;45.05;99312.19;5074721;28;20374;-78
2021/08/27 04:58:13;;;;;;;;;;;;;;;20.23;45.26;99311.91;5074526;28;19950;-78
2021/08/27 05:00:39;;;;;;;;;;;;;;;20.36;44.77;99309.41;5074438;28;19924;-78
2021/08/27 05:03:04;;;;;;;;;;;;;;;20.51;44.71;99309.44;5074452;28;19924;-78
2021/08/27 05:05:30;;;;;;;;;;;;;;;20.63;44.15;99306.25;5074389;28;19972;-79
2021/08/27 05:07:56;;;;;;;;;;;;;;;20.64;44.17;99314.19;5058475;28;19923;-77
2021/08/27 05:10:22;;;;;;;;;;;;;;;20.77;44.18;99308.13;5061331;28;19931;-79
2021/08/27 05:12:47;;;;;;;;;;;;;;;20.99;43.71;99299.00;5061561;28;19931;-79
2021/08/27 05:15:13;;;;;;;;;;;;;;;20.93;43.64;99307.06;5061301;28;19977;-80
2021/08/27 05:17:39;;;;;;;;;;;;;;;21.02;43.21;99303.19;5077784;28;19973;-80
2021/08/27 05:20:05;;;;;;;;;;;;;;;20.94;43.30;99296.00;5060919;28;19973;-78
2021/08/27 05:22:31;;;;;;;;;;;;;;;20.79;43.79;99295.19;5061547;28;19924;-77
2021/08/27 05:24:57;;;;;;;;;;;;;;;20.95;43.62;99284.09;5077803;28;19931;-80
2021/08/27 05:27:22;;;;;;;;;;;;;;;21.17;43.41;99289.56;5077465;28;19934;-79
2021/08/27 05:29:48;;;;;;;;;;;;;;;21.26;43.08;99286.53;5061323;28;20354;-77
2021/08/27 05:32:14;;;;;;;;;;;;;;;21.40;42.92;99284.84;5060895;28;20335;-78
2021/08/27 05:34:41;;;;;;;;;;;;;;;21.39;42.83;99293.16;5077758;28;19924;-77
2021/08/27 05:37:07;;;;;;;;;;;;;;;21.38;42.85;99288.78;5061272;28;20387;-79
2021/08/27 05:39:33;;;;;;;;;;;;;;;21.33;43.42;99286.66;5077912;28;19989;-79
2021/08/27 05:41:59;;;;;;;;;;;;;;;21.52;43.24;99280.56;5078189;28;19924;-78
2021/08/27 05:44:25;;;;;;;;;;;;;;;21.74;42.40;99273.22;5077757;28;20402;-79
2021/08/27 05:46:51;;;;;;;;;;;;;;;21.83;42.01;99291.06;5079054;28;19930;-79
2021/08/27 05:49:16;;;;;;;;;;;;;;;21.57;42.43;99283.53;5079178;28;19924;-79
2021/08/27 05:51:42;;;;;;;;;;;;;;;21.62;42.40;99282.94;5080306;28;19931;-79
2021/08/27 05:54:09;;;;;;;;;;;;;;;21.70;42.47;99276.50;5089224;28;20010;-79
2021/08/27 05:56:35;;;;;;;;;;;;;;;21.91;41.70;99275.66;5052650;28;19924;-80
2021/08/27 05:59:00;;;;;;;;;;;;;;;21.88;41.90;99274.16;5069467;28;19970;-78
2021/08/27 06:01:26;;;;;;;;;;;;;;;22.00;41.80;99272.59;5079348;28;19924;-79
2021/08/27 06:03:52;;;;;;;;;;;;;;;22.18;41.53;99274.00;5080527;28;19924;-79
2021/08/27 06:06:18;;;;;;;;;;;;;;;22.38;41.69;99274.09;5063572;28;19924;-80
2021/08/27 06:08:43;;;;;;;;;;;;;;;22.38;41.15;99268.66;5079814;28;19924;-79
2021/08/27 06:11:09;;;;;;;;;;;;;;;22.44;40.83;99276.03;5043626;28;19924;-80
2021/08/27 06:13:35;;;;;;;;;;;;;;;22.42;40.79;99278.97;5077107;28;20456;-80
2021/08/27 06:16:00;;;;;;;;;;;;;;;22.24;41.25;99275.91;5060138;28;20569;-78
2021/08/27 06:18:26;;;;;;;;;;;;;;;22.45;40.82;99275.81;5060812;28;20027;-78
2021/08/27 06:20:52;;;;;;;;;;;;;;;22.63;41.03;99269.00;5076416;28;20015;-79
2021/08/27 06:23:18;;;;;;;;;;;;;;;22.53;40.75;99262.06;5077675;28;19930;-79
2021/08/27 06:25:44;;;;;;;;;;;;;;;22.64;40.68;99268.81;5078046;28;19923;-79
2021/08/27 06:28:09;;;;;;;;;;;;;;;22.88;40.42;99262.00;5077411;28;20345;-79
2021/08/27 06:30:35;;;;;;;;;;;;;;;23.07;40.13;99273.19;5076970;28;19946;-78
2021/08/27 06:33:00;;;;;;;;;;;;;;;23.10;40.12;99265.44;5060650;28;19928;-79
2021/08/27 06:35:27;;;;;;;;;;;;;;;23.23;39.78;99256.44;5059740;28;19947;-78
2021/08/27 06:40:38;;;;;;;;;;;;;;;23.38;39.29;99264.44;5046437;28;19956;-79
2021/08/27 06:43:04;;;;;;;;;;;;;;;23.51;39.16;99262.59;5061480;28;20441;-79
2021/08/27 06:45:29;;;;;;;;;;;;;;;23.66;38.93;99256.97;5043161;28;19923;-78
2021/08/27 06:47:55;;;;;;;;;;;;;;;23.83;38.64;99256.53;5043096;28;20288;-78
2021/08/27 06:50:21;;;;;;;;;;;;;;;23.91;38.59;99251.69;5043145;28;19967;-79
2021/08/27 06:52:47;;;;;;;;;;;;;;;23.93;38.57;99262.41;5059755;28;19924;-78
2021/08/27 06:55:12;;;;;;;;;;;;;;;23.98;38.43;99252.53;5059455;28;20291;-77
2021/08/27 06:57:38;;;;;;;;;;;;;;;24.13;38.13;99251.47;5059615;28;19976;-78
2021/08/27 07:00:04;;;;;;;;;;;;;;;24.31;37.65;99251.63;5076562;28;19924;-79
2021/08/27 07:02:30;;;;;;;;;;;;;;;24.35;37.84;99255.63;5076998;28;20420;-79
2021/08/27 07:04:56;;;;;;;;;;;;;;;24.35;37.84;99258.34;5076276;28;20002;-78
2021/08/27 07:07:21;;;;;;;;;;;;;;;24.43;37.44;99252.69;5094087;28;20417;-79
2021/08/27 07:09:47;;;;;;;;;;;;;;;24.30;37.89;99255.44;5094100;28;19936;-79
2021/08/27 07:12:13;;;;;;;;;;;;;;;24.41;37.83;99254.81;5059294;28;20026;-79
2021/08/27 07:14:40;;;;;;;;;;;;;;;24.50;37.67;99257.31;5059371;28;19923;-80
2021/08/27 07:17:06;;;;;;;;;;;;;;;24.68;37.26;99251.97;5076396;28;20286;-78
2021/08/27 07:19:31;;;;;;;;;;;;;;;24.56;37.21;99253.69;5059262;28;19977;-79
2021/08/27 07:21:57;;;;;;;;;;;;;;;24.84;37.16;99253.38;5059445;28;19928;-78
2021/08/27 07:24:23;;;;;;;;;;;;;;;24.86;37.15;99257.59;5059050;28;20068;-79
2021/08/27 07:26:48;;;;;;;;;;;;;;;24.79;37.02;99248.56;5075697;28;19924;-80
2021/08/27 07:29:15;;;;;;;;;;;;;;;24.89;37.15;99242.63;5076087;28;20448;-78
2021/08/27 07:31:41;;;;;;;;;;;;;;;25.17;36.58;99242.31;5075050;28;20038;-79
2021/08/27 07:34:07;;;;;;;;;;;;;;;25.33;36.58;99251.88;5075538;28;19931;-79
2021/08/27 07:36:32;;;;;;;;;;;;;;;25.33;36.24;99247.25;5058669;28;19932;-79
2021/08/27 07:38:58;;;;;;;;;;;;;;;25.31;36.26;99249.38;5026485;28;19928;-79
2021/08/27 07:41:24;;;;;;;;;;;;;;;25.36;36.32;99244.06;5075999;28;19924;-80
2021/08/27 07:43:50;;;;;;;;;;;;;;;25.51;36.32;99242.91;5059231;28;19931;-80
2021/08/27 07:46:15;;;;;;;;;;;;;;;25.60;36.10;99242.41;5042357;28;19924;-79
2021/08/27 07:48:41;;;;;;;;;;;;;;;25.90;35.84;99250.81;5058638;28;19927;-81
2021/08/27 07:51:07;;;;;;;;;;;;;;;25.96;35.36;99246.34;5058682;28;20442;-79
2021/08/27 07:53:32;;;;;;;;;;;;;;;26.26;35.35;99246.47;5075415;28;20073;-79
2021/08/27 07:55:58;;;;;;;;;;;;;;;26.47;34.71;99236.16;5058263;28;19924;-79
2021/08/27 07:58:25;;;;;;;;;;;;;;;26.69;34.43;99233.78;5075466;28;19931;-80
2021/08/27 08:00:50;;;;;;;;;;;;;;;26.58;34.41;99235.38;5058522;28;19947;-80
2021/08/27 08:03:16;;;;;;;;;;;;;;;26.52;34.42;99233.56;5058571;28;20280;-80
2021/08/27 08:05:43;;;;;;;;;;;;;;;26.32;34.62;99242.81;5058524;28;19924;-81
2021/08/27 08:08:09;;;;;;;;;;;;;;;26.47;34.55;99242.47;5075238;28;19977;-79
2021/08/27 08:10:35;;;;;;;;;;;;;;;26.45;34.64;99243.75;5042433;28;19928;-79
2021/08/27 08:13:00;;;;;;;;;;;;;;;26.34;34.81;99237.94;5075442;28;20352;-79
2021/08/27 08:15:28;;;;;;;;;;;;;;;26.37;34.95;99237.50;5025515;28;19924;-79
2021/08/27 08:17:55;;;;;;;;;;;;;;;26.75;34.54;99228.22;5059149;28;20268;-80
2021/08/27 08:20:21;;;;;;;;;;;;;;;26.96;34.45;99229.63;5093344;28;19928;-79
2021/08/27 08:22:47;;;;;;;;;;;;;;;27.35;34.21;99227.41;5025708;28;19996;-79
2021/08/27 08:25:13;;;;;;;;;;;;;;;27.50;33.65;99229.72;5059971;28;19931;-80
2021/08/27 08:27:39;;;;;;;;;;;;;;;27.50;33.65;99225.06;5059018;28;19924;-77
2021/08/27 08:30:05;;;;;;;;;;;;;;;27.42;33.86;99230.03;5058599;28;20510;-79
2021/08/27 08:32:31;;;;;;;;;;;;;;;27.53;33.60;99229.22;5075018;28;19944;-80
2021/08/27 08:34:57;;;;;;;;;;;;;;;27.43;33.58;99228.97;5074680;28;20298;-79
2021/08/27 08:37:23;;;;;;;;;;;;;;;27.39;33.79;99239.59;5092714;28;20360;-78
2021/08/27 08:39:49;;;;;;;;;;;;;;;27.60;33.70;99232.69;5092942;28;19924;-81
2021/08/27 08:42:14;;;;;;;;;;;;;;;27.52;33.87;99230.31;5074902;28;19931;-80
2021/08/27 08:44:41;;;;;;;;;;;;;;;27.76;33.90;99233.97;5061267;28;19931;-79
2021/08/27 08:47:08;;;;;;;;;;;;;;;27.54;34.04;99234.50;5045500;28;19924;-78
2021/08/27 08:49:34;;;;;;;;;;;;;;;27.43;34.04;99228.97;5078390;28;20329;-80
2021/08/27 08:52:00;;;;;;;;;;;;;;;27.35;34.03;99231.00;5061704;28;19950;-80
2021/08/27 08:54:25;;;;;;;;;;;;;;;27.48;34.12;99232.69;5062819;28;19924;-80
2021/08/27 08:56:51;;;;;;;;;;;;;;;27.98;33.42;99220.47;5078691;28;19967;-79
2021/08/27 08:59:17;;;;;;;;;;;;;;;28.03;33.38;99226.09;5061795;28;19924;-81
2021/08/27 09:01:42;;;;;;;;;;;;;;;28.28;32.87;99221.19;5061749;28;19928;-79
2021/08/27 09:04:08;;;;;;;;;;;;;;;28.33;32.58;99231.44;5028149;28;19930;-79
2021/08/27 09:06:34;;;;;;;;;;;;;;;28.47;32.51;99221.03;5045170;28;19946;-79
2021/08/27 09:09:00;;;;;;;;;;;;;;;28.62;32.41;99229.59;5096421;28;19971;-80
2021/08/27 09:11:26;;;;;;;;;;;;;;;28.60;32.61;99237.28;5061819;28;19967;-78
2021/08/27 09:13:56;;;;;;;;;;;;;;;28.61;32.56;99227.94;5078856;28;19932;-79
2021/08/27 09:16:25;;;;;;;;;;;;;;;29.01;32.52;99225.22;5062533;28;20019;-79
2021/08/27 09:18:51;;;;;;;;;;;;;;;29.32;31.70;99233.22;5061754;28;19968;-79
2021/08/27 09:21:26;;;;;;;;;;;;;;;29.34;31.48;99231.88;5061817;28;19963;-79
2021/08/27 09:24:12;;;;;;;;;;;;;;;29.40;31.88;99241.06;5061520;28;20412;-79
2021/08/27 09:26:37;;;;;;;;;;;;;;;29.81;31.51;99231.59;5061499;28;19930;-80
2021/08/27 09:29:03;;;;;;;;;;;;;;;30.03;31.09;99230.84;5061218;28;19924;-78
2021/08/27 09:31:32;;;;;;;;;;;;;;;29.93;30.84;99245.28;5062410;28;19924;-80
2021/08/27 09:33:58;;;;;;;;;;;;;;;29.95;31.35;99237.63;5045605;28;19924;-79
2021/08/27 09:36:24;;;;;;;;;;;;;;;30.03;30.74;99231.66;5044808;28;19931;-80
2021/08/27 09:38:59;;;;;;;;;;;;;;;29.53;31.64;99222.31;5061044;28;19928;-79
2021/08/27 09:41:24;;;;;;;;;;;;;;;29.92;31.54;99224.34;5078220;28;20390;-80
2021/08/27 09:43:51;;;;;;;;;;;;;;;29.88;31.48;99223.16;5061142;28;19931;-80
2021/08/27 09:46:33;;;;;;;;;;;;;;;30.14;31.46;99227.97;5044670;28;19925;-79
2021/08/27 09:48:59;;;;;;;;;;;;;;;30.32;31.09;99223.31;5096019;28;19930;-79
2021/08/27 09:51:45;;;;;;;;;;;;;;;30.15;31.37;99226.06;5043979;28;19924;-78
2021/08/27 09:54:19;;;;;;;;;;;;;;;30.72;30.54;99234.00;5094616;28;19924;-79
2021/08/27 09:56:46;;;;;;;;;;;;;;;30.54;30.79;99239.84;5077583;28;20399;-79
2021/08/27 09:59:12;;;;;;;;;;;;;;;29.86;31.97;99230.84;5060978;28;19980;-79
2021/08/27 10:01:47;;;;;;;;;;;;;;;29.55;32.51;99230.31;5061033;28;20374;-79
2021/08/27 10:04:13;;;;;;;;;;;;;;;30.05;32.07;99226.72;5078273;28;19924;-79
2021/08/27 10:06:39;;;;;;;;;;;;;;;30.57;31.28;99223.63;5080296;28;20014;-79
2021/08/27 10:09:05;;;;;;;;;;;;;;;30.72;31.07;99215.53;5046878;28;19956;-78
2021/08/27 10:11:31;;;;;;;;;;;;;;;31.13;30.45;99213.25;5079120;28;20353;-79
2021/08/27 10:13:57;;;;;;;;;;;;;;;30.98;30.72;99218.63;5077596;28;20027;-80
2021/08/27 10:16:23;;;;;;;;;;;;;;;31.29;30.52;99227.22;5096320;28;19928;-81
2021/08/27 10:18:49;;;;;;;;;;;;;;;30.98;31.00;99226.91;5060561;28;20289;-81
2021/08/27 10:21:14;;;;;;;;;;;;;;;31.54;30.26;99212.84;5094800;28;20482;-80
2021/08/27 10:23:40;;;;;;;;;;;;;;;31.85;29.54;99220.31;5060228;28;20019;-79
2021/08/27 10:26:16;;;;;;;;;;;;;;;31.89;29.52;99215.91;5076764;28;19988;-79
2021/08/27 10:28:41;;;;;;;;;;;;;;;32.16;29.34;99204.78;5060413;28;19928;-77
2021/08/27 10:31:07;;;;;;;;;;;;;;;32.67;28.92;99214.47;5095068;28;19924;-78
2021/08/27 10:33:39;;;;;;;;;;;;;;;32.38;28.92;99212.94;5060335;28;20310;-77
2021/08/27 10:36:31;;;;;;;;;;;;;;;31.57;29.99;99218.69;5060339;28;19977;-78
2021/08/27 10:38:57;;;;;;;;;;;;;;;31.61;30.41;99211.53;5059951;28;19935;-78
2021/08/27 10:41:29;;;;;;;;;;;;;;;32.03;29.79;99209.94;5077073;28;19924;-79
2021/08/27 10:43:56;;;;;;;;;;;;;;;31.87;29.93;99223.66;5076745;28;20477;-78
2021/08/27 10:46:24;;;;;;;;;;;;;;;32.00;29.88;99211.28;5027145;28;19924;-79
2021/08/27 10:48:50;;;;;;;;;;;;;;;32.17;29.36;99200.09;5043386;28;19931;-78
2021/08/27 10:51:36;;;;;;;;;;;;;;;32.09;29.79;99193.13;5076668;28;19928;-79
2021/08/27 10:54:02;;;;;;;;;;;;;;;32.69;28.96;99206.72;5043147;28;20406;-78
2021/08/27 10:56:43;;;;;;;;;;;;;;;32.62;28.78;99205.03;5026963;28;20340;-78
2021/08/27 10:59:10;;;;;;;;;;;;;;;32.52;28.68;99213.28;5077111;28;19931;-78
2021/08/27 11:01:36;;;;;;;;;;;;;;;32.78;28.53;99205.09;5044335;28;20371;-77
2021/08/27 11:04:03;;;;;;;;;;;;;;;32.81;28.57;99210.09;5043768;28;19931;-78
2021/08/27 11:06:32;;;;;;;;;;;;;;;33.13;28.32;99198.84;5060133;28;20020;-77
2021/08/27 11:09:33;;;;;;;;;;;;;;;32.60;28.79;99203.63;5076769;28;19924;-78
2021/08/27 11:12:11;;;;;;;;;;;;;;;32.63;29.05;99187.31;4983208;28;20327;-78
2021/08/27 11:14:38;;;;;;;;;;;;;;;33.15;28.11;99193.03;5072246;28;19924;-80
2021/08/27 11:17:06;;;;;;;;;;;;;;;33.10;28.10;99197.47;5076659;28;19924;-79
2021/08/27 11:19:40;;;;;;;;;;;;;;;32.86;28.44;99204.56;5042898;28;20034;-78
2021/08/27 11:22:09;;;;;;;;;;;;;;;33.11;28.32;99193.56;5042902;28;19973;-79
2021/08/27 11:24:35;;;;;;;;;;;;;;;33.38;27.95;99198.03;5059265;28;19930;-77
2021/08/27 11:27:01;;;;;;;;;;;;;;;33.59;27.86;99188.66;5043060;28;19924;-80
2021/08/27 11:29:27;;;;;;;;;;;;;;;33.74;27.14;99189.75;5059208;28;20446;-79
2021/08/27 11:31:53;;;;;;;;;;;;;;;33.31;27.99;99189.16;5059347;28;19963;-79
2021/08/27 11:34:22;;;;;;;;;;;;;;;33.86;27.11;99190.31;5042270;28;19924;-77
2021/08/27 11:36:48;;;;;;;;;;;;;;;34.14;26.94;99186.09;5039085;28;19936;-79
2021/08/27 11:39:14;;;;;;;;;;;;;;;34.39;26.75;99192.72;5055657;28;20023;-78
2021/08/27 11:41:41;;;;;;;;;;;;;;;34.65;26.42;99176.81;5055580;28;20434;-79
2021/08/27 11:44:07;;;;;;;;;;;;;;;34.54;26.34;99187.13;5055700;28;19931;-77
2021/08/27 11:46:33;;;;;;;;;;;;;;;35.23;25.43;99194.53;5071982;28;20023;-79
2021/08/27 11:49:15;;;;;;;;;;;;;;;35.22;25.43;99189.28;5039170;28;19924;-79
2021/08/27 11:51:45;;;;;;;;;;;;;;;34.76;26.25;99181.19;5038990;28;19932;-78
2021/08/27 11:54:17;;;;;;;;;;;;;;;34.60;26.04;99185.13;5055368;28;20356;-80
2021/08/27 11:56:53;;;;;;;;;;;;;;;34.76;25.91;99195.06;5038513;28;19924;-79
2021/08/27 11:59:22;;;;;;;;;;;;;;;34.12;26.86;99184.75;5038446;28;20019;-79
2021/08/27 12:01:48;;;;;;;;;;;;;;;34.71;25.99;99192.31;5055178;28;19970;-79
2021/08/27 12:04:24;;;;;;;;;;;;;;;34.83;25.79;99176.16;5072184;28;19924;-80
2021/08/27 12:07:03;;;;;;;;;;;;;;;35.54;24.99;99179.59;5055331;28;19932;-79
2021/08/27 12:09:29;;;;;;;;;;;;;;;35.37;24.93;99180.00;5055160;28;19924;-78
2021/08/27 12:11:55;;;;;;;;;;;;;;;35.56;25.04;99157.91;5055490;28;19990;-80
2021/08/27 12:14:21;;;;;;;;;;;;;;;35.14;25.27;99167.66;5055087;28;19929;-79
2021/08/27 12:16:46;;;;;;;;;;;;;;;35.16;25.41;99165.41;5071995;28;19933;-79
2021/08/27 12:19:12;;;;;;;;;;;;;;;35.58;24.92;99170.38;5075611;28;19925;-79
2021/08/27 12:21:38;;;;;;;;;;;;;;;35.38;25.00;99167.75;5075787;28;20093;-77
2021/08/27 12:24:14;;;;;;;;;;;;;;;34.70;25.86;99166.50;5075673;28;19932;-79
2021/08/27 12:26:40;;;;;;;;;;;;;;;34.74;25.59;99175.91;5044229;28;19924;-78
2021/08/27 12:29:15;;;;;;;;;;;;;;;34.32;26.39;99179.94;5058951;28;19924;-80
2021/08/27 12:31:41;;;;;;;;;;;;;;;33.91;26.77;99179.19;5059167;28;19931;-79
2021/08/27 12:34:06;;;;;;;;;;;;;;;34.50;26.18;99158.28;5075541;28;19924;-79
2021/08/27 12:36:36;;;;;;;;;;;;;;;34.99;25.60;99177.75;5075398;28;19946;-79
2021/08/27 12:39:01;;;;;;;;;;;;;;;35.41;25.32;99162.44;5075131;28;19936;-79
2021/08/27 12:41:30;;;;;;;;;;;;;;;35.18;25.11;99175.13;5058919;28;19985;-77
2021/08/27 12:44:14;;;;;;;;;;;;;;;35.41;25.01;99165.22;5075432;28;20294;-78
2021/08/27 12:46:49;;;;;;;;;;;;;;;35.35;25.22;99174.72;5075324;28;19924;-77
2021/08/27 12:49:15;;;;;;;;;;;;;;;34.51;25.76;99169.09;5042616;28;19964;-77
2021/08/27 12:51:45;;;;;;;;;;;;;;;35.03;25.53;99173.28;5059417;28;20029;-78